sensor_id;sensor_type;location;lat;lon;timestamp;temperature;humidity
19256;DHT22;9762;52.490;13.410;2024-02-04T00:00:34;12.00;98.40
19256;DHT22;9762;52.490;13.410;2024-02-04T00:03:00;12.00;98.40
19256;DHT22;9762;52.490;13.410;2024-02-04T00:05:26;12.00;98.10
19256;DHT22;9762;52.490;13.410;2024-02-04T00:07:51;12.00;98.10
19256;DHT22;9762;52.490;13.410;2024-02-04T00:10:17;12.00;98.10
19256;DHT22;9762;52.490;13.410;2024-02-04T00:12:44;12.00;97.90
19256;DHT22;9762;52.490;13.410;2024-02-04T00:15:09;12.00;98.20
19256;DHT22;9762;52.490;13.410;2024-02-04T00:17:36;12.00;98.40
19256;DHT22;9762;52.490;13.410;2024-02-04T00:20:03;12.00;98.00
19256;DHT22;9762;52.490;13.410;2024-02-04T00:22:33;12.00;98.20
19256;DHT22;9762;52.490;13.410;2024-02-04T00:24:59;12.00;98.30
19256;DHT22;9762;52.490;13.410;2024-02-04T00:27:33;12.00;98.30
19256;DHT22;9762;52.490;13.410;2024-02-04T00:29:59;11.90;98.20
19256;DHT22;9762;52.490;13.410;2024-02-04T00:32:25;11.80;98.10
19256;DHT22;9762;52.490;13.410;2024-02-04T00:34:52;11.80;98.20
19256;DHT22;9762;52.490;13.410;2024-02-04T00:37:17;11.80;98.40
19256;DHT22;9762;52.490;13.410;2024-02-04T00:39:43;11.80;98.20
19256;DHT22;9762;52.490;13.410;2024-02-04T00:42:09;11.80;98.20
19256;DHT22;9762;52.490;13.410;2024-02-04T00:44:34;11.80;98.00
19256;DHT22;9762;52.490;13.410;2024-02-04T00:47:00;11.80;98.20
19256;DHT22;9762;52.490;13.410;2024-02-04T00:49:25;11.80;97.70
19256;DHT22;9762;52.490;13.410;2024-02-04T00:51:52;11.80;97.40
19256;DHT22;9762;52.490;13.410;2024-02-04T00:54:18;11.70;97.20
19256;DHT22;9762;52.490;13.410;2024-02-04T00:56:43;11.70;97.10
19256;DHT22;9762;52.490;13.410;2024-02-04T00:59:10;11.70;97.10
19256;DHT22;9762;52.490;13.410;2024-02-04T01:01:35;11.80;97.20
19256;DHT22;9762;52.490;13.410;2024-02-04T01:04:01;11.70;96.90
19256;DHT22;9762;52.490;13.410;2024-02-04T01:06:26;11.70;96.70
19256;DHT22;9762;52.490;13.410;2024-02-04T01:08:53;11.60;96.60
19256;DHT22;9762;52.490;13.410;2024-02-04T01:11:19;11.60;96.70
19256;DHT22;9762;52.490;13.410;2024-02-04T01:13:45;11.60;96.50
19256;DHT22;9762;52.490;13.410;2024-02-04T01:16:10;11.50;96.50
19256;DHT22;9762;52.490;13.410;2024-02-04T01:18:36;11.50;96.60
19256;DHT22;9762;52.490;13.410;2024-02-04T01:21:01;11.60;96.50
19256;DHT22;9762;52.490;13.410;2024-02-04T01:23:27;11.50;96.60
19256;DHT22;9762;52.490;13.410;2024-02-04T01:25:53;11.60;96.60
19256;DHT22;9762;52.490;13.410;2024-02-04T01:28:19;11.60;96.50
19256;DHT22;9762;52.490;13.410;2024-02-04T01:30:44;11.60;96.60
19256;DHT22;9762;52.490;13.410;2024-02-04T01:33:10;11.60;96.70
19256;DHT22;9762;52.490;13.410;2024-02-04T01:35:35;11.50;96.80
19256;DHT22;9762;52.490;13.410;2024-02-04T01:38:01;11.50;96.90
19256;DHT22;9762;52.490;13.410;2024-02-04T01:40:27;11.50;97.00
19256;DHT22;9762;52.490;13.410;2024-02-04T01:42:52;11.50;97.20
19256;DHT22;9762;52.490;13.410;2024-02-04T01:45:18;11.50;97.10
19256;DHT22;9762;52.490;13.410;2024-02-04T01:47:44;11.50;97.10
19256;DHT22;9762;52.490;13.410;2024-02-04T01:50:10;11.40;97.20
19256;DHT22;9762;52.490;13.410;2024-02-04T01:52:37;11.40;97.30
19256;DHT22;9762;52.490;13.410;2024-02-04T01:55:05;11.40;97.40
19256;DHT22;9762;52.490;13.410;2024-02-04T01:57:34;11.40;97.40
19256;DHT22;9762;52.490;13.410;2024-02-04T02:00:03;11.40;97.50
19256;DHT22;9762;52.490;13.410;2024-02-04T02:02:37;11.40;97.60
19256;DHT22;9762;52.490;13.410;2024-02-04T02:05:04;11.30;97.70
19256;DHT22;9762;52.490;13.410;2024-02-04T02:07:30;11.30;97.80
19256;DHT22;9762;52.490;13.410;2024-02-04T02:09:56;11.30;97.80
19256;DHT22;9762;52.490;13.410;2024-02-04T02:12:36;11.30;97.90
19256;DHT22;9762;52.490;13.410;2024-02-04T02:15:23;11.20;97.90
19256;DHT22;9762;52.490;13.410;2024-02-04T02:17:58;11.20;97.90
19256;DHT22;9762;52.490;13.410;2024-02-04T02:23:08;11.20;98.00
19256;DHT22;9762;52.490;13.410;2024-02-04T02:25:37;11.20;98.40
19256;DHT22;9762;52.490;13.410;2024-02-04T02:28:03;11.20;97.90
19256;DHT22;9762;52.490;13.410;2024-02-04T02:30:29;11.20;98.00
19256;DHT22;9762;52.490;13.410;2024-02-04T02:32:55;11.20;98.00
19256;DHT22;9762;52.490;13.410;2024-02-04T02:35:22;11.20;98.00
19256;DHT22;9762;52.490;13.410;2024-02-04T02:40:51;11.20;98.20
19256;DHT22;9762;52.490;13.410;2024-02-04T02:43:19;11.20;98.10
19256;DHT22;9762;52.490;13.410;2024-02-04T02:45:46;11.20;98.00
19256;DHT22;9762;52.490;13.410;2024-02-04T02:48:12;11.20;98.00
19256;DHT22;9762;52.490;13.410;2024-02-04T02:50:38;11.20;97.90
19256;DHT22;9762;52.490;13.410;2024-02-04T02:53:04;11.20;98.00
19256;DHT22;9762;52.490;13.410;2024-02-04T02:55:30;11.20;98.00
19256;DHT22;9762;52.490;13.410;2024-02-04T02:57:56;11.20;98.00
19256;DHT22;9762;52.490;13.410;2024-02-04T03:00:21;11.20;98.00
19256;DHT22;9762;52.490;13.410;2024-02-04T03:02:47;11.10;98.00
19256;DHT22;9762;52.490;13.410;2024-02-04T03:05:15;11.10;98.20
19256;DHT22;9762;52.490;13.410;2024-02-04T03:07:41;11.10;98.40
19256;DHT22;9762;52.490;13.410;2024-02-04T03:10:08;11.10;98.60
19256;DHT22;9762;52.490;13.410;2024-02-04T03:12:33;11.00;98.80
19256;DHT22;9762;52.490;13.410;2024-02-04T03:14:59;10.90;99.00
19256;DHT22;9762;52.490;13.410;2024-02-04T03:17:25;11.00;99.20
19256;DHT22;9762;52.490;13.410;2024-02-04T03:19:50;11.00;99.40
19256;DHT22;9762;52.490;13.410;2024-02-04T03:22:22;11.00;99.40
19256;DHT22;9762;52.490;13.410;2024-02-04T03:24:48;10.90;99.50
19256;DHT22;9762;52.490;13.410;2024-02-04T03:27:16;10.90;99.60
19256;DHT22;9762;52.490;13.410;2024-02-04T03:29:42;10.90;99.60
19256;DHT22;9762;52.490;13.410;2024-02-04T03:32:07;10.90;99.60
19256;DHT22;9762;52.490;13.410;2024-02-04T03:34:33;10.80;99.70
19256;DHT22;9762;52.490;13.410;2024-02-04T03:37:00;10.80;99.80
19256;DHT22;9762;52.490;13.410;2024-02-04T03:39:26;10.80;99.80
19256;DHT22;9762;52.490;13.410;2024-02-04T03:41:51;10.80;99.90
19256;DHT22;9762;52.490;13.410;2024-02-04T03:44:17;10.80;99.90
19256;DHT22;9762;52.490;13.410;2024-02-04T03:46:43;10.90;99.70
19256;DHT22;9762;52.490;13.410;2024-02-04T03:49:08;10.80;99.70
19256;DHT22;9762;52.490;13.410;2024-02-04T03:51:34;10.90;99.70
19256;DHT22;9762;52.490;13.410;2024-02-04T03:54:00;10.90;99.70
19256;DHT22;9762;52.490;13.410;2024-02-04T03:56:25;10.90;99.70
19256;DHT22;9762;52.490;13.410;2024-02-04T03:58:51;10.90;99.60
19256;DHT22;9762;52.490;13.410;2024-02-04T04:01:17;10.90;99.50
19256;DHT22;9762;52.490;13.410;2024-02-04T04:03:43;10.90;99.60
19256;DHT22;9762;52.490;13.410;2024-02-04T04:06:09;10.80;99.60
19256;DHT22;9762;52.490;13.410;2024-02-04T04:08:36;10.90;99.60
19256;DHT22;9762;52.490;13.410;2024-02-04T04:11:01;10.90;99.50
19256;DHT22;9762;52.490;13.410;2024-02-04T04:13:27;10.90;99.40
19256;DHT22;9762;52.490;13.410;2024-02-04T04:15:53;10.90;99.40
19256;DHT22;9762;52.490;13.410;2024-02-04T04:18:19;11.00;99.20
19256;DHT22;9762;52.490;13.410;2024-02-04T04:20:45;10.90;99.20
19256;DHT22;9762;52.490;13.410;2024-02-04T04:23:11;10.90;99.20
19256;DHT22;9762;52.490;13.410;2024-02-04T04:25:37;11.00;99.10
19256;DHT22;9762;52.490;13.410;2024-02-04T04:28:03;11.00;99.00
19256;DHT22;9762;52.490;13.410;2024-02-04T04:30:28;11.00;98.80
19256;DHT22;9762;52.490;13.410;2024-02-04T04:32:56;10.90;98.80
19256;DHT22;9762;52.490;13.410;2024-02-04T04:35:22;10.90;98.80
19256;DHT22;9762;52.490;13.410;2024-02-04T04:37:47;10.90;98.90
19256;DHT22;9762;52.490;13.410;2024-02-04T04:40:13;11.00;98.90
19256;DHT22;9762;52.490;13.410;2024-02-04T04:42:39;11.00;98.60
19256;DHT22;9762;52.490;13.410;2024-02-04T04:45:05;10.90;98.50
19256;DHT22;9762;52.490;13.410;2024-02-04T04:47:30;10.90;98.50
19256;DHT22;9762;52.490;13.410;2024-02-04T04:49:56;10.80;98.50
19256;DHT22;9762;52.490;13.410;2024-02-04T04:52:21;10.80;98.60
19256;DHT22;9762;52.490;13.410;2024-02-04T04:54:48;10.70;98.60
19256;DHT22;9762;52.490;13.410;2024-02-04T04:57:13;10.70;98.50
19256;DHT22;9762;52.490;13.410;2024-02-04T04:59:39;10.70;98.60
19256;DHT22;9762;52.490;13.410;2024-02-04T05:02:05;10.70;98.40
19256;DHT22;9762;52.490;13.410;2024-02-04T05:04:31;10.70;98.50
19256;DHT22;9762;52.490;13.410;2024-02-04T05:06:56;10.70;98.30
19256;DHT22;9762;52.490;13.410;2024-02-04T05:09:22;10.70;98.40
19256;DHT22;9762;52.490;13.410;2024-02-04T05:11:48;10.70;98.50
19256;DHT22;9762;52.490;13.410;2024-02-04T05:14:13;10.70;98.30
19256;DHT22;9762;52.490;13.410;2024-02-04T05:16:39;10.60;98.30
19256;DHT22;9762;52.490;13.410;2024-02-04T05:19:04;10.60;98.40
19256;DHT22;9762;52.490;13.410;2024-02-04T05:21:30;10.60;98.40
19256;DHT22;9762;52.490;13.410;2024-02-04T05:23:56;10.60;98.50
19256;DHT22;9762;52.490;13.410;2024-02-04T05:26:21;10.60;98.50
19256;DHT22;9762;52.490;13.410;2024-02-04T05:28:47;10.60;98.60
19256;DHT22;9762;52.490;13.410;2024-02-04T05:31:13;10.60;98.40
19256;DHT22;9762;52.490;13.410;2024-02-04T05:33:38;10.60;98.40
19256;DHT22;9762;52.490;13.410;2024-02-04T05:36:04;10.60;98.30
19256;DHT22;9762;52.490;13.410;2024-02-04T05:38:30;10.70;98.30
19256;DHT22;9762;52.490;13.410;2024-02-04T05:40:56;10.60;98.00
19256;DHT22;9762;52.490;13.410;2024-02-04T05:43:21;10.60;98.00
19256;DHT22;9762;52.490;13.410;2024-02-04T05:45:47;10.60;98.10
19256;DHT22;9762;52.490;13.410;2024-02-04T05:48:13;10.60;98.00
19256;DHT22;9762;52.490;13.410;2024-02-04T05:50:39;10.60;98.00
19256;DHT22;9762;52.490;13.410;2024-02-04T05:53:05;10.50;97.90
19256;DHT22;9762;52.490;13.410;2024-02-04T05:55:30;10.60;98.00
19256;DHT22;9762;52.490;13.410;2024-02-04T05:57:56;10.60;98.00
19256;DHT22;9762;52.490;13.410;2024-02-04T06:00:23;10.60;98.00
19256;DHT22;9762;52.490;13.410;2024-02-04T06:02:49;10.60;97.80
19256;DHT22;9762;52.490;13.410;2024-02-04T06:05:15;10.60;97.80
19256;DHT22;9762;52.490;13.410;2024-02-04T06:07:42;10.60;97.80
19256;DHT22;9762;52.490;13.410;2024-02-04T06:10:11;10.60;97.90
19256;DHT22;9762;52.490;13.410;2024-02-04T06:12:36;10.60;98.10
19256;DHT22;9762;52.490;13.410;2024-02-04T06:15:04;10.60;98.10
19256;DHT22;9762;52.490;13.410;2024-02-04T06:17:29;10.70;98.00
19256;DHT22;9762;52.490;13.410;2024-02-04T06:19:55;10.70;98.00
19256;DHT22;9762;52.490;13.410;2024-02-04T06:22:22;10.60;98.10
19256;DHT22;9762;52.490;13.410;2024-02-04T06:24:48;10.60;98.20
19256;DHT22;9762;52.490;13.410;2024-02-04T06:27:14;10.60;98.20
19256;DHT22;9762;52.490;13.410;2024-02-04T06:29:39;10.60;98.10
19256;DHT22;9762;52.490;13.410;2024-02-04T06:32:05;10.60;98.30
19256;DHT22;9762;52.490;13.410;2024-02-04T06:34:31;10.70;98.30
19256;DHT22;9762;52.490;13.410;2024-02-04T06:36:57;10.70;98.20
19256;DHT22;9762;52.490;13.410;2024-02-04T06:39:23;10.70;98.20
19256;DHT22;9762;52.490;13.410;2024-02-04T06:41:48;10.70;98.20
19256;DHT22;9762;52.490;13.410;2024-02-04T06:44:14;10.70;98.30
19256;DHT22;9762;52.490;13.410;2024-02-04T06:46:40;10.70;98.50
19256;DHT22;9762;52.490;13.410;2024-02-04T06:49:06;10.70;98.50
19256;DHT22;9762;52.490;13.410;2024-02-04T06:51:32;10.70;98.60
19256;DHT22;9762;52.490;13.410;2024-02-04T06:53:57;10.70;98.80
19256;DHT22;9762;52.490;13.410;2024-02-04T06:56:23;10.70;98.90
19256;DHT22;9762;52.490;13.410;2024-02-04T06:58:49;10.70;99.00
19256;DHT22;9762;52.490;13.410;2024-02-04T07:01:15;10.70;99.00
19256;DHT22;9762;52.490;13.410;2024-02-04T07:03:40;10.70;99.10
19256;DHT22;9762;52.490;13.410;2024-02-04T07:06:06;10.60;99.10
19256;DHT22;9762;52.490;13.410;2024-02-04T07:08:32;10.60;99.30
19256;DHT22;9762;52.490;13.410;2024-02-04T07:10:58;10.60;99.20
19256;DHT22;9762;52.490;13.410;2024-02-04T07:13:24;10.60;99.10
19256;DHT22;9762;52.490;13.410;2024-02-04T07:15:49;10.50;99.10
19256;DHT22;9762;52.490;13.410;2024-02-04T07:18:15;10.50;99.30
19256;DHT22;9762;52.490;13.410;2024-02-04T07:20:42;10.50;99.30
19256;DHT22;9762;52.490;13.410;2024-02-04T07:23:09;10.60;99.30
19256;DHT22;9762;52.490;13.410;2024-02-04T07:25:34;10.60;99.20
19256;DHT22;9762;52.490;13.410;2024-02-04T07:28:02;10.70;99.10
19256;DHT22;9762;52.490;13.410;2024-02-04T07:30:28;10.80;99.00
19256;DHT22;9762;52.490;13.410;2024-02-04T07:32:53;10.80;98.90
19256;DHT22;9762;52.490;13.410;2024-02-04T07:35:19;10.90;98.50
19256;DHT22;9762;52.490;13.410;2024-02-04T07:37:45;11.00;98.40
19256;DHT22;9762;52.490;13.410;2024-02-04T07:40:10;11.00;98.20
19256;DHT22;9762;52.490;13.410;2024-02-04T07:42:36;11.10;98.10
19256;DHT22;9762;52.490;13.410;2024-02-04T07:45:02;11.10;98.00
19256;DHT22;9762;52.490;13.410;2024-02-04T07:47:34;11.10;97.80
19256;DHT22;9762;52.490;13.410;2024-02-04T07:49:59;11.20;97.80
19256;DHT22;9762;52.490;13.410;2024-02-04T07:52:25;11.20;97.70
19256;DHT22;9762;52.490;13.410;2024-02-04T07:54:50;11.30;97.70
19256;DHT22;9762;52.490;13.410;2024-02-04T07:57:16;11.20;97.60
19256;DHT22;9762;52.490;13.410;2024-02-04T07:59:42;11.30;97.70
19256;DHT22;9762;52.490;13.410;2024-02-04T08:02:08;11.30;97.60
19256;DHT22;9762;52.490;13.410;2024-02-04T08:04:33;11.30;97.60
19256;DHT22;9762;52.490;13.410;2024-02-04T08:06:59;11.30;97.50
19256;DHT22;9762;52.490;13.410;2024-02-04T08:09:24;11.30;97.50
19256;DHT22;9762;52.490;13.410;2024-02-04T08:11:50;11.40;97.80
19256;DHT22;9762;52.490;13.410;2024-02-04T08:14:16;11.50;97.50
19256;DHT22;9762;52.490;13.410;2024-02-04T08:16:43;11.50;97.30
19256;DHT22;9762;52.490;13.410;2024-02-04T08:19:08;11.60;97.30
19256;DHT22;9762;52.490;13.410;2024-02-04T08:21:34;11.60;97.30
19256;DHT22;9762;52.490;13.410;2024-02-04T08:24:00;11.70;96.90
19256;DHT22;9762;52.490;13.410;2024-02-04T08:26:25;11.70;97.00
19256;DHT22;9762;52.490;13.410;2024-02-04T08:28:51;11.80;96.50
19256;DHT22;9762;52.490;13.410;2024-02-04T08:31:17;11.70;96.40
19256;DHT22;9762;52.490;13.410;2024-02-04T08:33:42;11.80;96.40
19256;DHT22;9762;52.490;13.410;2024-02-04T08:36:08;11.80;96.10
19256;DHT22;9762;52.490;13.410;2024-02-04T08:38:36;11.80;95.90
19256;DHT22;9762;52.490;13.410;2024-02-04T08:41:03;11.80;95.70
19256;DHT22;9762;52.490;13.410;2024-02-04T08:43:29;11.80;95.70
19256;DHT22;9762;52.490;13.410;2024-02-04T08:45:54;11.80;95.80
19256;DHT22;9762;52.490;13.410;2024-02-04T08:48:20;11.90;95.70
19256;DHT22;9762;52.490;13.410;2024-02-04T08:50:46;11.90;95.50
19256;DHT22;9762;52.490;13.410;2024-02-04T08:53:11;11.90;95.10
19256;DHT22;9762;52.490;13.410;2024-02-04T08:55:37;11.90;95.10
19256;DHT22;9762;52.490;13.410;2024-02-04T08:58:03;12.00;95.20
19256;DHT22;9762;52.490;13.410;2024-02-04T09:00:28;12.00;95.00
19256;DHT22;9762;52.490;13.410;2024-02-04T09:02:54;12.00;95.00
19256;DHT22;9762;52.490;13.410;2024-02-04T09:05:20;12.00;95.10
19256;DHT22;9762;52.490;13.410;2024-02-04T09:07:46;12.00;94.90
19256;DHT22;9762;52.490;13.410;2024-02-04T09:10:11;12.10;94.80
19256;DHT22;9762;52.490;13.410;2024-02-04T09:12:38;12.10;95.00
19256;DHT22;9762;52.490;13.410;2024-02-04T09:15:04;12.20;95.20
19256;DHT22;9762;52.490;13.410;2024-02-04T09:17:30;12.30;94.90
19256;DHT22;9762;52.490;13.410;2024-02-04T09:19:58;12.30;94.60
19256;DHT22;9762;52.490;13.410;2024-02-04T09:22:24;12.30;94.20
19256;DHT22;9762;52.490;13.410;2024-02-04T09:24:50;12.30;94.10
19256;DHT22;9762;52.490;13.410;2024-02-04T09:27:15;12.30;94.20
19256;DHT22;9762;52.490;13.410;2024-02-04T09:29:41;12.30;94.00
19256;DHT22;9762;52.490;13.410;2024-02-04T09:32:07;12.30;93.90
19256;DHT22;9762;52.490;13.410;2024-02-04T09:34:33;12.20;93.70
19256;DHT22;9762;52.490;13.410;2024-02-04T09:36:59;12.20;94.10
19256;DHT22;9762;52.490;13.410;2024-02-04T09:39:25;12.30;93.90
19256;DHT22;9762;52.490;13.410;2024-02-04T09:41:51;12.30;93.80
19256;DHT22;9762;52.490;13.410;2024-02-04T09:44:17;12.30;93.80
19256;DHT22;9762;52.490;13.410;2024-02-04T09:46:43;12.30;93.70
19256;DHT22;9762;52.490;13.410;2024-02-04T09:49:09;12.30;93.70
19256;DHT22;9762;52.490;13.410;2024-02-04T09:51:36;12.30;93.40
19256;DHT22;9762;52.490;13.410;2024-02-04T09:54:05;12.40;93.20
19256;DHT22;9762;52.490;13.410;2024-02-04T09:56:35;12.30;93.00
19256;DHT22;9762;52.490;13.410;2024-02-04T09:59:03;12.30;92.90
19256;DHT22;9762;52.490;13.410;2024-02-04T10:01:32;12.30;92.80
19256;DHT22;9762;52.490;13.410;2024-02-04T10:03:58;12.20;92.80
19256;DHT22;9762;52.490;13.410;2024-02-04T10:06:24;12.30;92.90
19256;DHT22;9762;52.490;13.410;2024-02-04T10:08:50;12.30;92.80
19256;DHT22;9762;52.490;13.410;2024-02-04T10:11:16;12.30;92.70
19256;DHT22;9762;52.490;13.410;2024-02-04T10:13:46;12.30;92.50
19256;DHT22;9762;52.490;13.410;2024-02-04T10:16:13;12.30;92.40
19256;DHT22;9762;52.490;13.410;2024-02-04T10:18:43;12.30;92.30
19256;DHT22;9762;52.490;13.410;2024-02-04T10:21:27;12.30;92.60
19256;DHT22;9762;52.490;13.410;2024-02-04T10:23:53;12.40;92.40
19256;DHT22;9762;52.490;13.410;2024-02-04T10:26:19;12.40;92.30
19256;DHT22;9762;52.490;13.410;2024-02-04T10:28:48;12.40;91.90
19256;DHT22;9762;52.490;13.410;2024-02-04T10:31:14;12.50;91.90
19256;DHT22;9762;52.490;13.410;2024-02-04T10:33:40;12.50;91.80
19256;DHT22;9762;52.490;13.410;2024-02-04T10:36:06;12.50;91.90
19256;DHT22;9762;52.490;13.410;2024-02-04T10:38:32;12.60;91.70
19256;DHT22;9762;52.490;13.410;2024-02-04T10:41:00;12.60;91.50
19256;DHT22;9762;52.490;13.410;2024-02-04T10:43:34;12.50;91.30
19256;DHT22;9762;52.490;13.410;2024-02-04T10:46:26;12.50;91.30
19256;DHT22;9762;52.490;13.410;2024-02-04T10:48:59;12.50;91.80
19256;DHT22;9762;52.490;13.410;2024-02-04T10:51:26;12.60;91.30
19256;DHT22;9762;52.490;13.410;2024-02-04T10:53:54;12.50;91.20
19256;DHT22;9762;52.490;13.410;2024-02-04T10:59:06;12.50;91.20
19256;DHT22;9762;52.490;13.410;2024-02-04T11:01:33;12.50;91.10
19256;DHT22;9762;52.490;13.410;2024-02-04T11:03:59;12.50;91.70
19256;DHT22;9762;52.490;13.410;2024-02-04T11:06:27;12.40;91.30
19256;DHT22;9762;52.490;13.410;2024-02-04T11:08:54;12.40;91.30
19256;DHT22;9762;52.490;13.410;2024-02-04T11:11:22;12.40;91.30
19256;DHT22;9762;52.490;13.410;2024-02-04T11:13:50;12.30;91.50
19256;DHT22;9762;52.490;13.410;2024-02-04T11:24:54;12.40;91.00
19256;DHT22;9762;52.490;13.410;2024-02-04T11:27:25;12.30;91.00
19256;DHT22;9762;52.490;13.410;2024-02-04T11:29:51;12.30;91.10
19256;DHT22;9762;52.490;13.410;2024-02-04T11:32:17;12.30;91.10
19256;DHT22;9762;52.490;13.410;2024-02-04T11:34:45;12.30;91.00
19256;DHT22;9762;52.490;13.410;2024-02-04T11:37:17;12.30;91.10
19256;DHT22;9762;52.490;13.410;2024-02-04T11:39:53;12.30;91.30
19256;DHT22;9762;52.490;13.410;2024-02-04T11:42:19;12.30;91.30
19256;DHT22;9762;52.490;13.410;2024-02-04T11:44:46;12.40;91.30
19256;DHT22;9762;52.490;13.410;2024-02-04T11:47:25;12.40;91.00
19256;DHT22;9762;52.490;13.410;2024-02-04T11:49:58;12.40;90.90
19256;DHT22;9762;52.490;13.410;2024-02-04T11:52:26;12.40;90.80
19256;DHT22;9762;52.490;13.410;2024-02-04T11:54:52;12.40;90.90
19256;DHT22;9762;52.490;13.410;2024-02-04T11:57:18;12.40;90.80
19256;DHT22;9762;52.490;13.410;2024-02-04T11:59:44;12.40;90.70
19256;DHT22;9762;52.490;13.410;2024-02-04T12:02:11;12.40;90.40
19256;DHT22;9762;52.490;13.410;2024-02-04T12:04:37;12.40;90.30
19256;DHT22;9762;52.490;13.410;2024-02-04T12:07:08;12.40;90.30
19256;DHT22;9762;52.490;13.410;2024-02-04T12:09:35;12.30;90.50
19256;DHT22;9762;52.490;13.410;2024-02-04T12:12:01;12.30;90.60
19256;DHT22;9762;52.490;13.410;2024-02-04T12:14:29;12.40;90.70
19256;DHT22;9762;52.490;13.410;2024-02-04T12:16:57;12.40;90.50
19256;DHT22;9762;52.490;13.410;2024-02-04T12:19:23;12.50;90.30
19256;DHT22;9762;52.490;13.410;2024-02-04T12:21:49;12.60;90.40
19256;DHT22;9762;52.490;13.410;2024-02-04T12:24:16;12.60;90.40
19256;DHT22;9762;52.490;13.410;2024-02-04T12:26:41;12.60;90.40
19256;DHT22;9762;52.490;13.410;2024-02-04T12:29:08;12.70;90.10
19256;DHT22;9762;52.490;13.410;2024-02-04T12:31:34;12.60;90.00
19256;DHT22;9762;52.490;13.410;2024-02-04T12:34:00;12.50;90.30
19256;DHT22;9762;52.490;13.410;2024-02-04T12:36:32;12.50;90.40
19256;DHT22;9762;52.490;13.410;2024-02-04T12:39:00;12.40;90.00
19256;DHT22;9762;52.490;13.410;2024-02-04T12:41:27;12.40;90.00
19256;DHT22;9762;52.490;13.410;2024-02-04T12:43:57;12.40;90.00
19256;DHT22;9762;52.490;13.410;2024-02-04T12:46:28;12.40;90.10
19256;DHT22;9762;52.490;13.410;2024-02-04T12:48:56;12.30;89.90
19256;DHT22;9762;52.490;13.410;2024-02-04T12:51:30;12.30;90.10
19256;DHT22;9762;52.490;13.410;2024-02-04T12:54:07;12.20;89.90
19256;DHT22;9762;52.490;13.410;2024-02-04T12:59:30;12.30;90.00
19256;DHT22;9762;52.490;13.410;2024-02-04T13:02:01;12.30;89.70
19256;DHT22;9762;52.490;13.410;2024-02-04T13:04:45;12.30;89.60
19256;DHT22;9762;52.490;13.410;2024-02-04T13:07:12;12.30;89.10
19256;DHT22;9762;52.490;13.410;2024-02-04T13:09:40;12.30;89.40
19256;DHT22;9762;52.490;13.410;2024-02-04T13:12:06;12.30;89.10
19256;DHT22;9762;52.490;13.410;2024-02-04T13:14:34;12.30;89.10
19256;DHT22;9762;52.490;13.410;2024-02-04T13:17:00;12.40;89.10
19256;DHT22;9762;52.490;13.410;2024-02-04T13:19:35;12.40;88.70
19256;DHT22;9762;52.490;13.410;2024-02-04T13:22:05;12.30;88.30
19256;DHT22;9762;52.490;13.410;2024-02-04T13:24:32;12.30;88.90
19256;DHT22;9762;52.490;13.410;2024-02-04T13:26:58;12.20;89.00
19256;DHT22;9762;52.490;13.410;2024-02-04T13:29:26;12.30;89.30
19256;DHT22;9762;52.490;13.410;2024-02-04T13:31:52;12.40;89.10
19256;DHT22;9762;52.490;13.410;2024-02-04T13:34:18;12.30;89.30
19256;DHT22;9762;52.490;13.410;2024-02-04T13:36:44;12.30;89.20
19256;DHT22;9762;52.490;13.410;2024-02-04T13:39:09;12.30;88.90
19256;DHT22;9762;52.490;13.410;2024-02-04T13:41:38;12.30;89.10
19256;DHT22;9762;52.490;13.410;2024-02-04T13:44:04;12.30;89.50
19256;DHT22;9762;52.490;13.410;2024-02-04T13:46:29;12.40;89.20
19256;DHT22;9762;52.490;13.410;2024-02-04T13:48:55;12.30;89.00
19256;DHT22;9762;52.490;13.410;2024-02-04T13:51:21;12.30;89.20
19256;DHT22;9762;52.490;13.410;2024-02-04T13:53:46;12.30;89.00
19256;DHT22;9762;52.490;13.410;2024-02-04T13:56:12;12.30;89.20
19256;DHT22;9762;52.490;13.410;2024-02-04T13:58:38;12.30;89.50
19256;DHT22;9762;52.490;13.410;2024-02-04T14:01:03;12.30;89.10
19256;DHT22;9762;52.490;13.410;2024-02-04T14:03:29;12.30;89.70
19256;DHT22;9762;52.490;13.410;2024-02-04T14:05:54;12.20;89.90
19256;DHT22;9762;52.490;13.410;2024-02-04T14:08:21;12.30;89.80
19256;DHT22;9762;52.490;13.410;2024-02-04T14:10:46;12.30;89.80
19256;DHT22;9762;52.490;13.410;2024-02-04T14:13:12;12.30;90.00
19256;DHT22;9762;52.490;13.410;2024-02-04T14:15:38;12.30;90.00
19256;DHT22;9762;52.490;13.410;2024-02-04T14:18:04;12.30;90.00
19256;DHT22;9762;52.490;13.410;2024-02-04T14:20:30;12.40;90.00
19256;DHT22;9762;52.490;13.410;2024-02-04T14:22:55;12.40;90.00
19256;DHT22;9762;52.490;13.410;2024-02-04T14:25:22;12.30;90.10
19256;DHT22;9762;52.490;13.410;2024-02-04T14:27:50;12.30;90.40
19256;DHT22;9762;52.490;13.410;2024-02-04T14:30:15;12.30;90.50
19256;DHT22;9762;52.490;13.410;2024-02-04T14:32:41;12.40;90.50
19256;DHT22;9762;52.490;13.410;2024-02-04T14:35:08;12.40;90.40
19256;DHT22;9762;52.490;13.410;2024-02-04T14:37:35;12.40;90.60
19256;DHT22;9762;52.490;13.410;2024-02-04T14:40:01;12.40;90.60
19256;DHT22;9762;52.490;13.410;2024-02-04T14:42:29;12.40;90.60
19256;DHT22;9762;52.490;13.410;2024-02-04T14:44:54;12.50;90.60
19256;DHT22;9762;52.490;13.410;2024-02-04T14:47:20;12.50;90.40
19256;DHT22;9762;52.490;13.410;2024-02-04T14:49:46;12.60;91.00
19256;DHT22;9762;52.490;13.410;2024-02-04T14:52:11;12.60;90.40
19256;DHT22;9762;52.490;13.410;2024-02-04T14:54:37;12.60;90.30
19256;DHT22;9762;52.490;13.410;2024-02-04T14:57:05;12.60;90.30
19256;DHT22;9762;52.490;13.410;2024-02-04T14:59:31;12.60;90.20
19256;DHT22;9762;52.490;13.410;2024-02-04T15:02:03;12.60;90.30
19256;DHT22;9762;52.490;13.410;2024-02-04T15:04:30;12.50;90.30
19256;DHT22;9762;52.490;13.410;2024-02-04T15:06:57;12.50;90.30
19256;DHT22;9762;52.490;13.410;2024-02-04T15:09:23;12.40;90.30
19256;DHT22;9762;52.490;13.410;2024-02-04T15:11:49;12.40;90.50
19256;DHT22;9762;52.490;13.410;2024-02-04T15:14:15;12.40;90.60
19256;DHT22;9762;52.490;13.410;2024-02-04T15:16:42;12.40;90.50
19256;DHT22;9762;52.490;13.410;2024-02-04T15:19:08;12.30;90.60
19256;DHT22;9762;52.490;13.410;2024-02-04T15:21:35;12.30;90.70
19256;DHT22;9762;52.490;13.410;2024-02-04T15:24:01;12.30;90.60
19256;DHT22;9762;52.490;13.410;2024-02-04T15:26:34;12.30;90.70
19256;DHT22;9762;52.490;13.410;2024-02-04T15:29:03;12.30;90.80
19256;DHT22;9762;52.490;13.410;2024-02-04T15:31:32;12.30;90.80
19256;DHT22;9762;52.490;13.410;2024-02-04T15:34:02;12.30;90.80
19256;DHT22;9762;52.490;13.410;2024-02-04T15:36:29;12.30;90.80
19256;DHT22;9762;52.490;13.410;2024-02-04T15:38:57;12.30;90.80
19256;DHT22;9762;52.490;13.410;2024-02-04T15:41:23;12.30;90.70
19256;DHT22;9762;52.490;13.410;2024-02-04T15:43:49;12.40;90.60
19256;DHT22;9762;52.490;13.410;2024-02-04T15:46:17;12.40;90.60